Terminal Aerodrome Forecast
Issued by NWS Sioux Falls, SD

Home | Current Version | Previous Version | Graphics & Text | Print | Product List | Glossary On
Versions: 1 2 3 4 5 6 7 8 9 10 11 12 13
000
FTUS43 KFSD 041120
TAFHON
TAF
KHON 041120Z 0412/0512 01008KT P6SM SCT250
     FM041500 05011KT P6SM BKN200
     FM050100 08007KT P6SM OVC150
     FM050600 10007KT P6SM OVC090=

USA.gov is the U.S. government's official web portal to all federal, state and local government web resources and services.